createdAt,value
2018-06-28T00:02:49.259Z,70.60
2018-06-28T00:05:19.227Z,70.40
2018-06-28T00:07:49.399Z,70.50
2018-06-28T00:10:19.516Z,70.50
2018-06-28T00:15:19.162Z,71.90
2018-06-28T00:17:49.187Z,72.00
2018-06-28T00:20:19.503Z,72.60
2018-06-28T00:22:49.472Z,72.70
2018-06-28T00:25:19.463Z,72.60
2018-06-28T00:27:49.420Z,73.50
2018-06-28T00:30:19.744Z,74.10
2018-06-28T00:32:49.703Z,74.10
2018-06-28T00:35:19.740Z,74.30
2018-06-28T00:37:49.759Z,75.20
2018-06-28T00:42:49.421Z,74.10
2018-06-28T00:45:19.353Z,74.50
2018-06-28T00:47:49.284Z,73.70
2018-06-28T00:50:19.478Z,75.20
2018-06-28T00:52:49.428Z,75.10
2018-06-28T00:55:19.344Z,74.10
2018-06-28T00:57:49.280Z,73.70
2018-06-28T01:00:19.200Z,74.30
2018-06-28T01:02:49.144Z,74.90
2018-06-28T01:05:19.072Z,74.80
2018-06-28T01:10:18.596Z,74.10
2018-06-28T01:12:48.535Z,74.80
2018-06-28T01:15:18.469Z,74.20
2018-06-28T01:17:48.416Z,75.20
2018-06-28T01:20:18.354Z,73.70
2018-06-28T01:22:48.283Z,74.10
2018-06-28T01:25:18.264Z,74.20
2018-06-28T01:27:48.192Z,74.40
2018-06-28T01:30:18.145Z,75.10
2018-06-28T01:32:48.068Z,74.70
2018-06-28T01:35:18.068Z,73.90
2018-06-28T01:37:48.080Z,74.50
2018-06-28T01:40:18.216Z,73.70
2018-06-28T01:43:05.406Z,73.50
2018-06-28T01:45:35.328Z,74.00
2018-06-28T01:48:05.268Z,73.90
2018-06-28T01:50:35.204Z,74.50
2018-06-28T01:53:05.204Z,73.60
2018-06-28T01:55:35.136Z,74.30
2018-06-28T01:58:05.063Z,73.00
2018-06-28T02:03:04.787Z,73.10
2018-06-28T02:05:34.749Z,72.80
2018-06-28T02:08:04.799Z,70.30
2018-06-28T02:13:05.101Z,70.50
2018-06-28T02:15:35.851Z,70.60
2018-06-28T02:18:06.900Z,68.80
2018-06-28T02:20:37.051Z,68.70
2018-06-28T02:23:06.992Z,68.80
2018-06-28T02:25:37.231Z,67.80
2018-06-28T02:28:07.177Z,68.60
2018-06-28T02:30:37.120Z,68.80
2018-06-28T02:33:07.047Z,69.60
2018-06-28T02:35:36.983Z,70.30
2018-06-28T02:38:06.908Z,69.80
2018-06-28T02:40:36.849Z,69.90
2018-06-28T02:43:06.787Z,71.40
2018-06-28T02:45:36.776Z,72.50
2018-06-28T02:48:06.808Z,72.30
2018-06-28T02:50:36.745Z,73.00
2018-06-28T02:55:36.244Z,72.80
2018-06-28T02:58:06.337Z,73.90
2018-06-28T03:00:36.304Z,73.30
2018-06-28T03:03:06.231Z,74.70
2018-06-28T03:05:36.168Z,74.60
2018-06-28T03:08:06.383Z,73.70
2018-06-28T03:10:36.537Z,75.20
2018-06-28T03:13:06.481Z,76.20
2018-06-28T03:15:36.708Z,75.50
2018-06-28T03:18:07.016Z,77.20
2018-06-28T03:20:36.956Z,77.30
2018-06-28T03:23:06.917Z,77.90
2018-06-28T03:25:36.860Z,76.50
2018-06-28T03:30:36.475Z,78.10
2018-06-28T03:33:06.404Z,77.90
2018-06-28T03:35:36.360Z,78.50
2018-06-28T03:38:06.369Z,79.10
2018-06-28T03:40:36.223Z,79.30
2018-06-28T03:43:06.192Z,79.80
2018-06-28T03:45:36.192Z,80.30
2018-06-28T03:48:06.145Z,80.30
2018-06-28T03:50:36.082Z,80.30
2018-06-28T03:53:06.292Z,81.60
2018-06-28T03:55:36.324Z,81.20
2018-06-28T04:00:35.981Z,81.70
2018-06-28T04:03:05.994Z,81.40
2018-06-28T04:05:36.196Z,82.10
2018-06-28T04:08:06.132Z,82.80
2018-06-28T04:10:36.085Z,83.10
2018-06-28T04:13:06.093Z,83.70
2018-06-28T04:15:36.280Z,82.90
2018-06-28T04:18:06.336Z,83.90
2018-06-28T04:20:36.304Z,83.60
2018-06-28T04:23:06.308Z,83.80
2018-06-28T04:25:36.460Z,84.30
2018-06-28T04:28:06.532Z,83.80
2018-06-28T04:30:36.476Z,84.30
2018-06-28T04:33:06.380Z,85.80
2018-06-28T04:35:36.612Z,86.20
2018-06-28T04:38:06.536Z,85.80
2018-06-28T04:40:36.471Z,85.70
2018-06-28T04:43:06.408Z,84.60
2018-06-28T04:45:36.480Z,87.00
2018-06-28T04:48:06.723Z,85.50
2018-06-28T04:50:36.636Z,86.00
2018-06-28T04:53:06.647Z,85.60
2018-06-28T04:55:36.904Z,85.70
2018-06-28T04:58:06.869Z,85.40
2018-06-28T05:00:37.180Z,85.70
2018-06-28T05:03:07.120Z,86.20
2018-06-28T05:05:37.576Z,85.00
2018-06-28T05:08:07.542Z,86.60
2018-06-28T05:10:37.496Z,84.20
2018-06-28T05:13:07.422Z,84.40
2018-06-28T05:15:37.624Z,81.70
2018-06-28T05:18:07.548Z,81.20
2018-06-28T05:20:37.496Z,78.80
2018-06-28T05:23:07.444Z,78.90
2018-06-28T05:25:37.807Z,77.90
2018-06-28T05:28:07.723Z,77.90
2018-06-28T05:30:37.659Z,76.20
2018-06-28T05:33:07.588Z,73.10
2018-06-28T05:35:37.843Z,74.60
2018-06-28T05:40:37.392Z,76.20
2018-06-28T05:43:07.335Z,74.00
2018-06-28T05:45:37.473Z,73.00
2018-06-28T05:48:07.391Z,71.20
2018-06-28T05:50:37.316Z,72.00
2018-06-28T05:53:07.272Z,69.60
2018-06-28T05:55:37.531Z,70.40
2018-06-28T05:58:07.471Z,68.70
2018-06-28T06:00:37.399Z,68.00
2018-06-28T06:03:07.352Z,70.80
2018-06-28T06:05:37.612Z,70.50
2018-06-28T06:08:07.552Z,68.30
2018-06-28T06:10:37.492Z,68.30
2018-06-28T06:13:07.471Z,68.00
2018-06-28T06:15:37.652Z,67.30
2018-06-28T06:18:07.752Z,67.60
2018-06-28T06:20:37.692Z,67.80
2018-06-28T06:23:07.640Z,65.70
2018-06-28T06:25:37.836Z,66.00
2018-06-28T06:28:07.767Z,66.60
2018-06-28T06:30:37.687Z,64.60
2018-06-28T06:33:07.641Z,66.30
2018-06-28T06:35:37.712Z,65.80
2018-06-28T06:38:07.653Z,65.80
2018-06-28T06:40:37.564Z,64.30
2018-06-28T06:43:07.504Z,64.70
2018-06-28T06:45:37.624Z,65.40
2018-06-28T06:48:07.556Z,63.60
2018-06-28T06:50:37.492Z,63.80
2018-06-28T06:53:07.432Z,66.40
2018-06-28T06:55:37.504Z,63.60
2018-06-28T06:58:07.625Z,63.10
2018-06-28T07:00:37.560Z,63.30
2018-06-28T07:03:07.488Z,59.90
2018-06-28T07:05:37.529Z,60.90
2018-06-28T07:08:07.460Z,58.60
2018-06-28T07:10:37.452Z,57.40
2018-06-28T07:13:07.381Z,56.50
2018-06-28T07:15:37.647Z,57.00
2018-06-28T07:18:07.684Z,55.30
2018-06-28T07:20:37.645Z,56.00
2018-06-28T07:23:07.746Z,55.90
2018-06-28T07:25:37.821Z,54.10
2018-06-28T07:28:07.751Z,55.10
2018-06-28T07:30:37.720Z,54.40
2018-06-28T07:33:07.717Z,51.90
2018-06-28T07:35:37.687Z,53.80
2018-06-28T07:38:07.647Z,54.10
2018-06-28T07:40:37.583Z,53.20
2018-06-28T07:43:07.514Z,51.40
2018-06-28T07:45:37.644Z,52.80
2018-06-28T07:48:07.580Z,50.70
2018-06-28T07:50:37.560Z,51.80
2018-06-28T07:53:07.571Z,50.90
2018-06-28T07:55:37.987Z,50.20
2018-06-28T07:58:08.175Z,50.80
2018-06-28T08:00:38.131Z,49.90
2018-06-28T08:03:08.123Z,52.30
2018-06-28T08:05:38.079Z,50.00
2018-06-28T08:08:08.108Z,50.60
2018-06-28T08:10:38.100Z,49.70
2018-06-28T08:13:08.268Z,49.40
2018-06-28T08:18:07.984Z,51.60
2018-06-28T08:20:38.244Z,50.50
2018-06-28T08:23:08.300Z,49.60
2018-06-28T08:25:38.515Z,50.70
2018-06-28T08:28:08.471Z,50.30
2018-06-28T08:30:38.451Z,51.20
2018-06-28T08:33:08.392Z,50.70
2018-06-28T08:35:38.368Z,52.90
2018-06-28T08:38:08.287Z,54.00
2018-06-28T08:40:38.224Z,53.40
2018-06-28T08:43:08.168Z,53.90
2018-06-28T08:45:38.451Z,51.80
2018-06-28T08:48:08.408Z,51.60
2018-06-28T08:50:38.672Z,53.30
2018-06-28T08:53:08.648Z,54.00
2018-06-28T08:55:38.860Z,53.70
2018-06-28T08:58:08.816Z,52.90
2018-06-28T09:00:38.720Z,52.10
2018-06-28T09:03:08.669Z,50.90
2018-06-28T09:05:38.723Z,51.30
2018-06-28T09:08:08.652Z,53.30
2018-06-28T09:10:38.632Z,51.60
2018-06-28T09:13:08.568Z,51.20
2018-06-28T09:15:38.756Z,51.90
2018-06-28T09:18:08.732Z,51.10
2018-06-28T09:20:38.677Z,51.20
2018-06-28T09:23:08.680Z,50.60
2018-06-28T09:25:38.638Z,52.40
2018-06-28T09:28:08.728Z,51.10
2018-06-28T09:30:38.696Z,51.50
2018-06-28T09:33:08.708Z,52.00
2018-06-28T09:35:38.691Z,50.20
2018-06-28T09:38:08.596Z,51.00
2018-06-28T09:40:38.540Z,49.70
2018-06-28T09:43:08.551Z,49.80
2018-06-28T09:45:38.484Z,50.70
2018-06-28T09:48:09.448Z,48.30
2018-06-28T09:50:39.392Z,50.60
2018-06-28T09:53:09.327Z,49.90
2018-06-28T09:55:39.515Z,49.40
2018-06-28T09:58:09.440Z,50.40
2018-06-28T10:00:44.252Z,49.70
2018-06-28T10:03:15.306Z,48.30
2018-06-28T10:05:45.281Z,49.10
2018-06-28T10:08:15.191Z,47.20
2018-06-28T10:10:45.168Z,49.50
2018-06-28T10:13:15.177Z,47.40
2018-06-28T10:15:45.129Z,48.40
2018-06-28T10:18:15.045Z,48.30
2018-06-28T10:20:44.992Z,46.30
2018-06-28T10:23:14.924Z,46.00
2018-06-28T10:25:45.095Z,45.80
2018-06-28T10:28:15.028Z,48.30
2018-06-28T10:30:45.200Z,47.10
2018-06-28T10:33:15.131Z,44.10
2018-06-28T10:35:45.139Z,44.10
2018-06-28T10:38:15.068Z,46.70
2018-06-28T10:40:45.487Z,46.50
2018-06-28T10:43:15.415Z,45.30
2018-06-28T10:45:45.664Z,45.30
2018-06-28T10:48:15.589Z,46.10
2018-06-28T10:50:45.541Z,45.20
2018-06-28T10:53:15.541Z,46.30
2018-06-28T10:55:45.499Z,44.90
2018-06-28T10:58:15.564Z,44.70
2018-06-28T11:00:45.520Z,46.00
2018-06-28T11:03:15.556Z,46.80
2018-06-28T11:05:45.501Z,46.30
2018-06-28T11:08:15.453Z,49.20
2018-06-28T11:10:45.397Z,49.50
2018-06-28T11:13:15.336Z,46.60
2018-06-28T11:15:45.315Z,46.80
2018-06-28T11:18:15.303Z,47.10
2018-06-28T11:20:45.293Z,47.10
2018-06-28T11:23:15.675Z,46.40
2018-06-28T11:25:45.636Z,44.70
2018-06-28T11:28:15.567Z,46.10
2018-06-28T11:30:45.525Z,46.90
2018-06-28T11:33:15.448Z,48.40
2018-06-28T11:35:45.455Z,50.30
2018-06-28T11:38:15.375Z,49.70
2018-06-28T11:40:45.388Z,49.60
2018-06-28T11:43:15.308Z,47.10
2018-06-28T11:45:45.256Z,46.30
2018-06-28T11:48:15.175Z,45.70
2018-06-28T11:50:45.126Z,46.20
2018-06-28T11:53:15.056Z,47.20
2018-06-28T11:55:45.037Z,47.20
2018-06-28T11:58:14.988Z,47.00
2018-06-28T12:00:44.952Z,45.20
2018-06-28T12:03:15.114Z,49.80
2018-06-28T12:05:45.144Z,49.30
2018-06-28T12:08:15.076Z,48.80
2018-06-28T12:10:45.022Z,49.50
2018-06-28T12:13:14.967Z,50.00
2018-06-28T12:15:45.056Z,49.70
2018-06-28T12:18:14.992Z,52.70
2018-06-28T12:20:44.931Z,49.50
2018-06-28T12:23:14.881Z,50.80
2018-06-28T12:25:45.026Z,49.20
2018-06-28T12:28:14.969Z,48.90
2018-06-28T12:30:44.912Z,46.90
2018-06-28T12:35:44.634Z,45.20
2018-06-28T12:38:17.207Z,42.50
2018-06-28T12:40:47.147Z,44.10
2018-06-28T12:43:17.217Z,44.30
2018-06-28T12:45:47.240Z,42.60
2018-06-28T12:48:17.307Z,45.80
2018-06-28T12:50:47.288Z,43.50
2018-06-28T12:53:17.235Z,45.20
2018-06-28T12:56:30.340Z,44.00
2018-06-28T12:59:01.649Z,45.40
2018-06-28T13:01:31.884Z,42.60
2018-06-28T13:06:31.445Z,45.00
2018-06-28T13:09:01.821Z,43.60
2018-06-28T13:11:31.899Z,43.80
2018-06-28T13:14:01.816Z,43.20
2018-06-28T13:16:31.760Z,40.60
2018-06-28T13:19:01.677Z,41.90
2018-06-28T13:21:31.760Z,43.60
2018-06-28T13:24:01.692Z,41.60
2018-06-28T13:26:31.628Z,42.90
2018-06-28T13:29:01.584Z,42.90
2018-06-28T13:31:31.512Z,39.60
2018-06-28T13:34:01.445Z,40.70
2018-06-28T13:36:31.544Z,40.30
2018-06-28T13:39:01.559Z,40.10
2018-06-28T13:41:31.668Z,44.20
2018-06-28T13:44:01.500Z,43.20
2018-06-28T13:46:31.429Z,41.30
2018-06-28T13:49:01.416Z,42.90
2018-06-28T13:51:31.324Z,45.30
2018-06-28T13:54:01.264Z,44.80
2018-06-28T13:56:31.179Z,46.10
2018-06-28T13:59:01.100Z,45.60
2018-06-28T14:01:31.101Z,46.30
2018-06-28T14:04:01.080Z,49.80
2018-06-28T14:06:31.956Z,47.00
2018-06-28T14:09:01.867Z,49.70
2018-06-28T14:11:31.923Z,51.60
2018-06-28T14:14:01.863Z,52.10
2018-06-28T14:19:01.361Z,48.40
2018-06-28T14:21:31.277Z,51.10
2018-06-28T14:24:01.256Z,52.20
2018-06-28T14:26:31.263Z,48.50
2018-06-28T14:29:01.191Z,50.60
2018-06-28T14:31:31.116Z,50.60
2018-06-28T14:34:01.052Z,51.40
2018-06-28T14:36:31.008Z,52.80
2018-06-28T14:41:30.742Z,51.40
2018-06-28T14:44:00.695Z,50.60
2018-06-28T14:46:30.612Z,50.80
2018-06-28T14:49:00.540Z,48.60
2018-06-28T14:51:30.468Z,50.50
2018-06-28T14:54:00.468Z,46.70
2018-06-28T14:56:30.427Z,48.40
2018-06-28T14:59:00.339Z,47.80
2018-06-28T15:01:30.319Z,48.10
2018-06-28T15:04:00.238Z,47.10
2018-06-28T15:06:30.151Z,48.00
2018-06-28T15:09:00.077Z,47.90
2018-06-28T15:11:29.990Z,46.40
2018-06-28T15:13:59.924Z,47.50
2018-06-28T15:16:29.836Z,47.40
2018-06-28T15:18:59.856Z,46.30
2018-06-28T15:21:29.810Z,45.50
2018-06-28T15:23:59.736Z,46.90
2018-06-28T15:26:29.661Z,46.30
2018-06-28T15:28:59.726Z,44.30
2018-06-28T15:31:29.639Z,46.40
2018-06-28T15:33:59.579Z,43.00
2018-06-28T15:36:29.519Z,42.60
2018-06-28T15:38:59.688Z,45.20
2018-06-28T15:41:29.635Z,44.10
2018-06-28T15:43:59.567Z,44.10
2018-06-28T15:46:29.492Z,42.20
2018-06-28T15:48:59.451Z,44.40
2018-06-28T15:51:29.396Z,45.30
2018-06-28T15:53:59.536Z,46.80
2018-06-28T15:56:29.456Z,49.60
2018-06-28T15:58:59.492Z,46.90
2018-06-28T16:01:29.415Z,51.60
2018-06-28T16:03:59.380Z,48.10
2018-06-28T16:06:29.320Z,51.60
2018-06-28T16:08:59.292Z,50.00
2018-06-28T16:11:29.284Z,50.40
2018-06-28T16:13:59.432Z,49.40
2018-06-28T16:16:29.363Z,53.00
2018-06-28T16:18:59.308Z,54.80
2018-06-28T16:21:29.226Z,53.60
2018-06-28T16:23:59.515Z,57.30
2018-06-28T16:26:29.424Z,57.00
2018-06-28T16:31:29.005Z,56.50
2018-06-28T16:33:59.027Z,58.20
2018-06-28T16:36:28.916Z,58.60
2018-06-28T16:38:58.901Z,57.00
2018-06-28T16:41:28.841Z,58.20
2018-06-28T16:43:58.780Z,59.90
2018-06-28T16:46:28.765Z,60.70
2018-06-28T16:48:58.644Z,56.80
2018-06-28T16:51:28.556Z,59.10
2018-06-28T16:53:58.628Z,59.20
2018-06-28T16:56:28.636Z,61.50
2018-06-28T16:58:58.589Z,62.60
2018-06-28T17:01:28.499Z,62.80
2018-06-28T17:03:58.461Z,63.20
2018-06-28T17:06:28.377Z,62.90
2018-06-28T17:08:58.319Z,65.50
2018-06-28T17:11:28.231Z,64.80
2018-06-28T17:13:58.187Z,62.00
2018-06-28T17:16:28.147Z,61.30
2018-06-28T17:18:58.064Z,63.10
2018-06-28T17:21:27.987Z,62.50
2018-06-28T17:23:57.912Z,63.50
2018-06-28T17:26:27.828Z,63.50
2018-06-28T17:28:57.792Z,65.20
2018-06-28T17:31:27.828Z,66.20
2018-06-28T17:33:57.883Z,68.00
2018-06-28T17:36:27.799Z,67.90
2018-06-28T17:38:58.096Z,68.30
2018-06-28T17:41:28.086Z,67.90
2018-06-28T17:43:58.023Z,67.60
2018-06-28T17:46:28.043Z,68.10
2018-06-28T17:51:27.971Z,70.70
2018-06-28T17:53:57.928Z,70.30
2018-06-28T17:56:27.872Z,70.20
2018-06-28T17:58:57.791Z,70.20
2018-06-28T18:01:27.728Z,70.60
2018-06-28T18:03:57.700Z,70.60
2018-06-28T18:06:27.623Z,71.20
2018-06-28T18:08:57.565Z,71.10
2018-06-28T18:11:27.468Z,72.20
2018-06-28T18:13:57.459Z,72.00
2018-06-28T18:16:27.384Z,65.20
2018-06-28T18:18:57.395Z,61.20
2018-06-28T18:21:27.336Z,59.70
2018-06-28T18:23:57.256Z,59.10
2018-06-28T18:26:27.352Z,59.00
2018-06-28T18:28:57.364Z,58.90
2018-06-28T18:31:27.365Z,59.10
2018-06-28T18:33:57.352Z,58.10
2018-06-28T18:36:27.304Z,59.10
2018-06-28T18:38:57.220Z,59.60
2018-06-28T18:41:27.135Z,59.90
2018-06-28T18:43:57.080Z,60.50
2018-06-28T18:46:27.015Z,60.80
2018-06-28T18:48:57.094Z,61.20
2018-06-28T18:51:26.996Z,61.60
2018-06-28T18:53:56.953Z,61.60
2018-06-28T18:58:56.515Z,61.70
2018-06-28T19:01:26.449Z,62.10
2018-06-28T19:03:56.463Z,62.10
2018-06-28T19:06:26.381Z,62.80
2018-06-28T19:08:56.355Z,62.70
2018-06-28T19:11:26.266Z,63.50
2018-06-28T19:14:01.696Z,62.90
2018-06-28T19:16:36.840Z,63.50
2018-06-28T19:19:06.768Z,64.30
2018-06-28T19:21:41.912Z,64.60
2018-06-28T19:24:11.829Z,64.80
2018-06-28T19:26:41.764Z,65.20
2018-06-28T19:29:17.185Z,65.50
2018-06-28T19:31:52.355Z,65.80
2018-06-28T19:34:22.271Z,67.80
2018-06-28T19:36:52.203Z,66.90
2018-06-28T19:39:27.532Z,68.30
2018-06-28T19:42:02.708Z,69.00
2018-06-28T19:44:32.613Z,68.80
2018-06-28T19:47:02.540Z,68.80
2018-06-28T19:49:37.772Z,69.10
2018-06-28T19:52:13.036Z,68.60
2018-06-28T19:54:43.113Z,68.80
2018-06-28T19:57:13.020Z,69.80
2018-06-28T19:59:48.739Z,70.20
2018-06-28T20:02:24.128Z,70.60
2018-06-28T20:04:54.055Z,70.20
2018-06-28T20:07:24.127Z,71.80
2018-06-28T20:09:54.153Z,71.20
2018-06-28T20:12:29.363Z,73.10
2018-06-28T20:15:04.672Z,73.00
2018-06-28T20:17:40.439Z,74.30
2018-06-28T20:20:15.596Z,74.40
2018-06-28T20:22:45.687Z,74.00
2018-06-28T20:25:15.796Z,73.10
2018-06-28T20:27:51.208Z,73.00
2018-06-28T20:30:26.580Z,73.90
2018-06-28T20:33:01.984Z,75.00
2018-06-28T20:35:31.949Z,74.40
2018-06-28T20:38:01.954Z,74.70
2018-06-28T20:40:31.932Z,75.70
2018-06-28T20:43:01.860Z,76.10
2018-06-28T20:45:31.793Z,76.60
2018-06-28T20:48:01.720Z,72.70
2018-06-28T20:50:31.660Z,72.10
2018-06-28T20:53:01.599Z,72.40
2018-06-28T20:55:31.572Z,73.50
2018-06-28T20:58:01.632Z,71.30
2018-06-28T21:00:31.572Z,72.50
2018-06-28T21:03:01.507Z,71.80
2018-06-28T21:05:31.419Z,72.00
2018-06-28T21:08:01.352Z,73.70
2018-06-28T21:10:31.367Z,74.30
2018-06-28T21:13:01.383Z,73.70
2018-06-28T21:15:31.308Z,74.30
2018-06-28T21:18:01.229Z,74.60
2018-06-28T21:20:31.159Z,75.30
2018-06-28T21:23:01.079Z,74.60
2018-06-28T21:25:30.995Z,75.30
2018-06-28T21:28:00.932Z,76.40
2018-06-28T21:30:30.846Z,75.70
2018-06-28T21:33:00.781Z,76.40
2018-06-28T21:35:30.687Z,76.40
2018-06-28T21:38:00.616Z,76.00
2018-06-28T21:40:30.544Z,76.00
2018-06-28T21:43:00.563Z,76.80
2018-06-28T21:45:30.420Z,77.90
2018-06-28T21:48:00.356Z,77.80
2018-06-28T21:50:30.263Z,78.00
2018-06-28T21:53:00.190Z,78.00
2018-06-28T21:55:30.145Z,77.30
2018-06-28T21:58:00.568Z,77.80
2018-06-28T22:00:32.905Z,78.50
2018-06-28T22:03:04.053Z,79.40
2018-06-28T22:05:34.424Z,78.40
2018-06-28T22:08:05.041Z,78.80
2018-06-28T22:10:34.840Z,79.20
2018-06-28T22:13:04.844Z,79.60
2018-06-28T22:15:34.715Z,79.70
2018-06-28T22:18:05.160Z,79.40
2018-06-28T22:20:35.084Z,80.30
2018-06-28T22:23:05.016Z,80.90
2018-06-28T22:25:34.955Z,81.20
2018-06-28T22:28:04.972Z,81.10
2018-06-28T22:30:34.892Z,80.50
2018-06-28T22:33:04.819Z,81.40
2018-06-28T22:35:34.743Z,81.80
2018-06-28T22:38:04.779Z,81.50
2018-06-28T22:40:34.687Z,82.20
2018-06-28T22:43:04.600Z,81.60
2018-06-28T22:45:34.503Z,81.90
2018-06-28T22:48:04.436Z,81.80
2018-06-28T22:50:34.344Z,82.50
2018-06-28T22:53:04.263Z,82.80
2018-06-28T22:55:34.165Z,83.00
2018-06-28T22:58:04.093Z,83.60
2018-06-28T23:00:34.096Z,83.80
2018-06-28T23:03:04.032Z,84.00
2018-06-28T23:05:34.011Z,83.60
2018-06-28T23:08:03.966Z,83.80
2018-06-28T23:10:33.872Z,83.70
2018-06-28T23:13:03.820Z,83.90
2018-06-28T23:15:33.727Z,84.00
2018-06-28T23:18:03.655Z,85.00
2018-06-28T23:20:33.588Z,85.90
2018-06-28T23:23:03.527Z,85.30
2018-06-28T23:25:33.455Z,85.70
2018-06-28T23:28:03.351Z,85.80
2018-06-28T23:30:33.253Z,85.80
2018-06-28T23:33:03.370Z,86.10
2018-06-28T23:35:33.188Z,86.30
2018-06-28T23:38:03.101Z,86.60
2018-06-28T23:40:33.024Z,86.90
2018-06-28T23:43:02.943Z,87.10
2018-06-28T23:45:32.856Z,86.70
2018-06-28T23:48:02.812Z,86.40
2018-06-28T23:50:32.724Z,86.50
2018-06-28T23:53:02.668Z,86.60
2018-06-28T23:55:32.584Z,86.40
2018-06-28T23:58:02.500Z,86.90
